OITK  Khoy Airport

Add Bookmark

Khoy, Iran

Status IATA
Operational KHY
Latitude Longitude
38° 25' 39" N 44° 58' 24" E
38.427502 44.973598
Local (DST + 5) UTC (GMT + 4)
Dec 18, 2014 08:49 Dec 18, 2014 17:19
Sunrise-Sunset Local UTC
Begin Civil Twilight 07:10 03:40
Sunrise 07:40 04:10
Sunset 05:12 13:42
End Civil Twilight 05:42 14:12

Current Weather

METAR Observed MVFR
OITK 181000Z 10006KT 5000 HZ SCT035 OVC090 04/01 Q1022 Thu, Dec 18, 2014 @ 10:00 UTC
(7 Hours, 19 Minutes ago)
Marginal Visual Flight Rules
Wind Visibility Clouds Conditions
100° at 6 knots (11 kph) 5000 meters
  • Scattered at 3,500' AGL
  • Overcast at 9,000' AGL
  • Haze
Temperatures Readings Precipitation
Current Temp 4°C (39°F)
Dewpoint 1°C (34°F)
Humidity 81%
Altimeter 30.18"Hg
Sea Level Pressure 1022mb
Field Elevation 3631.89'
None Recorded

Additional weather within a 92.6km radius of OITK

Map ICAO Location
OITR 84.8km S (174°)

24 Hour Weather History

Loading
-

24 Hour Weather Graphs

Loading
-

CheckWX.com is intended as a tool to help pilots better visualize weather data. It is not intended as a substitute for an official weather briefing obtained from a Flight Service Station. CheckWX.com does not meet the FAA requirements for an official pre-flight weather briefing. Therefore, it's important that pilots still call and obtain an official FSS pre-flight weather briefing.